Huzzah Creek (Missouri), Steelville (07014000)

StateMissouriCurrentLow (84 cfs)
RiverHuzzah CreekFlood - The river is flooding. Obstacles can be treacherous or deadly. The river should be avoided at this stage for casual trips and definitely for the inexperienced. Trips should be attempted only with protective gear and equipment.Flood(none)
Updated2019-10-14 1:30 (1 hour ago)High - The river is high and potentially dangerous, especially for the young and / or inexperienced. Normal stream obstacles are sometimes difficult to navigate. Extended distances can be attempted, but canoe travel may not be advisable.High(none)
Discharge84 cfs (median: 79 cfs)Good - Conditions are ideal for a canoe or kayak. Boats typically will drag on fewer than one-quarter of riffles, if at all, and portages are unnecessary or rare. Normal float lengths can be attempted without a problem.Good(none)
Height2.77 feetLow - River is low but can still be floated. Some riffles are okay but most come with significant dragging and might need a portage. Float lengths should be reduced to accommodate low flow, dragging, and portages.Low40
TrendFalling (falling over 24 hours)Poor - River is too low to float comfortably. Most or all riffles will drag or must be portaged and some obstacles (such as slick shelf rock) cause undue problems. Avoid the river at this stage for casual paddling trips.Poor(none)
USGSExternal icon USGS Site for Steelville (07014000)LocationExternal icon Google Maps

Trending Data

Plot Image
ObservationHeightDischargeMaximum
Discharge
Minimum
Discharge
Mean
Discharge
P05P10P20P25P50
(Median)
P75P80P90P95
2019-10-14 01:30 2.77 84 299 (2013) 46 (2018) 100 47 52 53 79 101 147 275
2019-10-14 00:30 2.78 85 299 (2013) 46 (2018) 100 47 52 53 79 101 147 275
2019-10-13 23:30 2.78 85 193 (2010) 46 (2018) 78 47 54 55 66 81 82 171
2019-10-13 22:30 2.78 85 193 (2010) 46 (2018) 78 47 54 55 66 81 82 171
2019-10-13 21:30 2.78 85 193 (2010) 46 (2018) 78 47 54 55 66 81 82 171
2019-10-13 20:30 2.78 85 193 (2010) 46 (2018) 78 47 54 55 66 81 82 171
2019-10-13 19:30 2.79 87 193 (2010) 46 (2018) 78 47 54 55 66 81 82 171
2019-10-13 18:30 2.79 87 193 (2010) 46 (2018) 78 47 54 55 66 81 82 171
2019-10-13 17:30 2.80 89 193 (2010) 46 (2018) 78 47 54 55 66 81 82 171
2019-10-13 16:30 2.80 89 193 (2010) 46 (2018) 78 47 54 55 66 81 82 171
2019-10-13 15:30 2.80 89 193 (2010) 46 (2018) 78 47 54 55 66 81 82 171
2019-10-13 14:30 2.81 90 193 (2010) 46 (2018) 78 47 54 55 66 81 82 171
2019-10-13 13:30 2.80 89 193 (2010) 46 (2018) 78 47 54 55 66 81 82 171
2019-10-13 12:30 2.81 90 193 (2010) 46 (2018) 78 47 54 55 66 81 82 171
2019-10-13 11:30 2.82 92 193 (2010) 46 (2018) 78 47 54 55 66 81 82 171
2019-10-13 10:30 2.82 92 193 (2010) 46 (2018) 78 47 54 55 66 81 82 171
2019-10-13 09:30 2.82 92 193 (2010) 46 (2018) 78 47 54 55 66 81 82 171
2019-10-13 08:30 2.82 92 193 (2010) 46 (2018) 78 47 54 55 66 81 82 171
2019-10-13 07:30 2.83 94 193 (2010) 46 (2018) 78 47 54 55 66 81 82 171
2019-10-13 06:30 2.82 92 193 (2010) 46 (2018) 78 47 54 55 66 81 82 171
2019-10-13 05:30 2.84 96 193 (2010) 46 (2018) 78 47 54 55 66 81 82 171
2019-10-13 04:30 2.84 96 193 (2010) 46 (2018) 78 47 54 55 66 81 82 171
2019-10-13 03:30 2.85 97 193 (2010) 46 (2018) 78 47 54 55 66 81 82 171
2019-10-13 02:30 2.85 97 193 (2010) 46 (2018) 78 47 54 55 66 81 82 171
2019-10-13 01:30 2.85 97 193 (2010) 46 (2018) 78 47 54 55 66 81 82 171
2019-10-13 00:30 2.86 99 193 (2010) 46 (2018) 78 47 54 55 66 81 82 171
2019-10-12 23:30 2.86 99 257 (2010) 46 (2018) 84 47 54 55 67 82 84 223
2019-10-12 22:30 2.87 101 257 (2010) 46 (2018) 84 47 54 55 67 82 84 223
2019-10-12 21:30 2.87 101 257 (2010) 46 (2018) 84 47 54 55 67 82 84 223
2019-10-12 20:30 2.88 103 257 (2010) 46 (2018) 84 47 54 55 67 82 84 223
2019-10-12 19:30 2.89 105 257 (2010) 46 (2018) 84 47 54 55 67 82 84 223
2019-10-12 18:30 2.88 103 257 (2010) 46 (2018) 84 47 54 55 67 82 84 223
2019-10-12 17:30 2.89 105 257 (2010) 46 (2018) 84 47 54 55 67 82 84 223
2019-10-12 16:30 2.90 107 257 (2010) 46 (2018) 84 47 54 55 67 82 84 223
2019-10-12 15:30 2.90 107 257 (2010) 46 (2018) 84 47 54 55 67 82 84 223
2019-10-12 14:30 2.90 107 257 (2010) 46 (2018) 84 47 54 55 67 82 84 223
2019-10-12 13:30 2.92 108 257 (2010) 46 (2018) 84 47 54 55 67 82 84 223
2019-10-12 12:30 2.92 108 257 (2010) 46 (2018) 84 47 54 55 67 82 84 223
2019-10-12 11:30 2.92 108 257 (2010) 46 (2018) 84 47 54 55 67 82 84 223
2019-10-12 10:30 2.92 108 257 (2010) 46 (2018) 84 47 54 55 67 82 84 223
2019-10-12 09:30 2.92 108 257 (2010) 46 (2018) 84 47 54 55 67 82 84 223
2019-10-12 08:30 2.93 110 257 (2010) 46 (2018) 84 47 54 55 67 82 84 223
2019-10-12 07:30 2.92 108 257 (2010) 46 (2018) 84 47 54 55 67 82 84 223
2019-10-12 06:30 2.90 107 257 (2010) 46 (2018) 84 47 54 55 67 82 84 223
2019-10-12 05:30 2.89 105 257 (2010) 46 (2018) 84 47 54 55 67 82 84 223
2019-10-12 04:30 2.86 99 257 (2010) 46 (2018) 84 47 54 55 67 82 84 223
2019-10-12 03:30 2.85 97 257 (2010) 46 (2018) 84 47 54 55 67 82 84 223
2019-10-12 02:30 2.81 90 257 (2010) 46 (2018) 84 47 54 55 67 82 84 223
2019-10-12 01:30 2.78 85 257 (2010) 46 (2018) 84 47 54 55 67 82 84 223
2019-10-12 00:30 2.76 82 257 (2010) 46 (2018) 84 47 54 55 67 82 84 223
2019-10-11 23:30 2.74 79 456 (2010) 46 (2018) 103 47 54 56 67 83 88 383
2019-10-11 22:30 2.73 78 456 (2010) 46 (2018) 103 47 54 56 67 83 88 383
2019-10-11 21:30 2.71 75 456 (2010) 46 (2018) 103 47 54 56 67 83 88 383
2019-10-11 20:30 2.71 75 456 (2010) 46 (2018) 103 47 54 56 67 83 88 383
2019-10-11 19:30 2.69 72 456 (2010) 46 (2018) 103 47 54 56 67 83 88 383
2019-10-11 18:30 2.69 72 456 (2010) 46 (2018) 103 47 54 56 67 83 88 383
2019-10-11 17:30 2.68 70 456 (2010) 46 (2018) 103 47 54 56 67 83 88 383
2019-10-11 16:30 2.67 69 456 (2010) 46 (2018) 103 47 54 56 67 83 88 383
2019-10-11 15:30 2.67 69 456 (2010) 46 (2018) 103 47 54 56 67 83 88 383
2019-10-11 14:30 2.67 69 456 (2010) 46 (2018) 103 47 54 56 67 83 88 383
2019-10-11 13:30 2.67 69 456 (2010) 46 (2018) 103 47 54 56 67 83 88 383
2019-10-11 12:30 2.67 69 456 (2010) 46 (2018) 103 47 54 56 67 83 88 383
2019-10-11 11:30 2.67 69 456 (2010) 46 (2018) 103 47 54 56 67 83 88 383
2019-10-11 10:30 2.67 69 456 (2010) 46 (2018) 103 47 54 56 67 83 88 383
2019-10-11 09:30 2.68 70 456 (2010) 46 (2018) 103 47 54 56 67 83 88 383
2019-10-11 08:30 2.68 70 456 (2010) 46 (2018) 103 47 54 56 67 83 88 383
2019-10-11 07:30 2.68 70 456 (2010) 46 (2018) 103 47 54 56 67 83 88 383
2019-10-11 06:30 2.68 70 456 (2010) 46 (2018) 103 47 54 56 67 83 88 383
2019-10-11 05:30 2.68 70 456 (2010) 46 (2018) 103 47 54 56 67 83 88 383
2019-10-11 04:30 2.68 70 456 (2010) 46 (2018) 103 47 54 56 67 83 88 383
2019-10-11 03:30 2.68 70 456 (2010) 46 (2018) 103 47 54 56 67 83 88 383
2019-10-11 02:30 2.65 66 456 (2010) 46 (2018) 103 47 54 56 67 83 88 383
2019-10-11 01:30 2.64 64 456 (2010) 46 (2018) 103 47 54 56 67 83 88 383
2019-10-11 00:30 2.64 64 456 (2010) 46 (2018) 103 47 54 56 67 83 88 383
2019-10-10 23:30 2.64 64 1330 (2010) 47 (2018) 182 48 55 57 67 82 84 1080
2019-10-10 22:30 2.64 64 1330 (2010) 47 (2018) 182 48 55 57 67 82 84 1080
2019-10-10 21:30 2.65 66 1330 (2010) 47 (2018) 182 48 55 57 67 82 84 1080
2019-10-10 20:30 2.65 66 1330 (2010) 47 (2018) 182 48 55 57 67 82 84 1080
2019-10-10 19:30 2.65 66 1330 (2010) 47 (2018) 182 48 55 57 67 82 84 1080
2019-10-10 18:30 2.66 67 1330 (2010) 47 (2018) 182 48 55 57 67 82 84 1080
2019-10-10 17:30 2.66 67 1330 (2010) 47 (2018) 182 48 55 57 67 82 84 1080
2019-10-10 16:30 2.63 63 1330 (2010) 47 (2018) 182 48 55 57 67 82 84 1080
2019-10-10 15:30 2.63 63 1330 (2010) 47 (2018) 182 48 55 57 67 82 84 1080
2019-10-10 14:30 2.62 61 1330 (2010) 47 (2018) 182 48 55 57 67 82 84 1080
2019-10-10 13:30 2.62 61 1330 (2010) 47 (2018) 182 48 55 57 67 82 84 1080
2019-10-10 12:30 2.63 63 1330 (2010) 47 (2018) 182 48 55 57 67 82 84 1080
2019-10-10 11:30 2.62 61 1330 (2010) 47 (2018) 182 48 55 57 67 82 84 1080
2019-10-10 10:30 2.63 63 1330 (2010) 47 (2018) 182 48 55 57 67 82 84 1080
2019-10-10 09:30 2.62 61 1330 (2010) 47 (2018) 182 48 55 57 67 82 84 1080
2019-10-10 08:30 2.62 61 1330 (2010) 47 (2018) 182 48 55 57 67 82 84 1080
2019-10-10 07:30 2.63 63 1330 (2010) 47 (2018) 182 48 55 57 67 82 84 1080
2019-10-10 06:30 2.62 61 1330 (2010) 47 (2018) 182 48 55 57 67 82 84 1080
2019-10-10 05:30 2.62 61 1330 (2010) 47 (2018) 182 48 55 57 67 82 84 1080
2019-10-10 04:30 2.62 61 1330 (2010) 47 (2018) 182 48 55 57 67 82 84 1080
2019-10-10 03:30 2.62 61 1330 (2010) 47 (2018) 182 48 55 57 67 82 84 1080
2019-10-10 02:30 2.62 61 1330 (2010) 47 (2018) 182 48 55 57 67 82 84 1080
2019-10-10 01:30 2.62 61 1330 (2010) 47 (2018) 182 48 55 57 67 82 84 1080
2019-10-10 00:30 2.62 61 1330 (2010) 47 (2018) 182 48 55 57 67 82 84 1080
2019-10-09 23:30 2.62 61 3360 (2010) 46 (2018) 365 46 52 56 67 83 86 2710
2019-10-09 22:30 2.62 61 3360 (2010) 46 (2018) 365 46 52 56 67 83 86 2710
2019-10-09 21:30 2.62 61 3360 (2010) 46 (2018) 365 46 52 56 67 83 86 2710
2019-10-09 20:30 2.62 61 3360 (2010) 46 (2018) 365 46 52 56 67 83 86 2710
2019-10-09 19:30 2.62 61 3360 (2010) 46 (2018) 365 46 52 56 67 83 86 2710
2019-10-09 18:30 2.63 63 3360 (2010) 46 (2018) 365 46 52 56 67 83 86 2710
2019-10-09 17:30 2.62 61 3360 (2010) 46 (2018) 365 46 52 56 67 83 86 2710
2019-10-09 16:30 2.62 61 3360 (2010) 46 (2018) 365 46 52 56 67 83 86 2710
2019-10-09 15:30 2.63 63 3360 (2010) 46 (2018) 365 46 52 56 67 83 86 2710
2019-10-09 14:30 2.63 63 3360 (2010) 46 (2018) 365 46 52 56 67 83 86 2710
2019-10-09 13:30 2.63 63 3360 (2010) 46 (2018) 365 46 52 56 67 83 86 2710
2019-10-09 12:30 2.63 63 3360 (2010) 46 (2018) 365 46 52 56 67 83 86 2710
2019-10-09 11:30 2.63 63 3360 (2010) 46 (2018) 365 46 52 56 67 83 86 2710
2019-10-09 10:30 2.63 63 3360 (2010) 46 (2018) 365 46 52 56 67 83 86 2710
2019-10-09 09:30 2.62 61 3360 (2010) 46 (2018) 365 46 52 56 67 83 86 2710
2019-10-09 08:30 2.63 63 3360 (2010) 46 (2018) 365 46 52 56 67 83 86 2710
2019-10-09 07:30 2.63 63 3360 (2010) 46 (2018) 365 46 52 56 67 83 86 2710
2019-10-09 06:30 2.63 63 3360 (2010) 46 (2018) 365 46 52 56 67 83 86 2710
2019-10-09 05:30 2.63 63 3360 (2010) 46 (2018) 365 46 52 56 67 83 86 2710
2019-10-09 04:30 2.62 61 3360 (2010) 46 (2018) 365 46 52 56 67 83 86 2710
2019-10-09 03:30 2.63 63 3360 (2010) 46 (2018) 365 46 52 56 67 83 86 2710
2019-10-09 02:30 2.62 61 3360 (2010) 46 (2018) 365 46 52 56 67 83 86 2710
2019-10-09 01:30 2.63 63 3360 (2010) 46 (2018) 365 46 52 56 67 83 86 2710
2019-10-09 00:30 2.63 63 3360 (2010) 46 (2018) 365 46 52 56 67 83 86 2710
2019-10-08 23:30 2.63 63 387 (2010) 45 (2018) 105 45 47 49 71 86 140 337
2019-10-08 22:30 2.63 63 387 (2010) 45 (2018) 105 45 47 49 71 86 140 337
2019-10-08 21:30 2.63 63 387 (2010) 45 (2018) 105 45 47 49 71 86 140 337
2019-10-08 20:30 2.63 63 387 (2010) 45 (2018) 105 45 47 49 71 86 140 337
2019-10-08 19:30 2.63 63 387 (2010) 45 (2018) 105 45 47 49 71 86 140 337
2019-10-08 18:30 2.63 63 387 (2010) 45 (2018) 105 45 47 49 71 86 140 337
2019-10-08 17:30 2.63 63 387 (2010) 45 (2018) 105 45 47 49 71 86 140 337
2019-10-08 16:30 2.63 63 387 (2010) 45 (2018) 105 45 47 49 71 86 140 337
2019-10-08 15:30 2.63 63 387 (2010) 45 (2018) 105 45 47 49 71 86 140 337
2019-10-08 14:30 2.64 64 387 (2010) 45 (2018) 105 45 47 49 71 86 140 337
2019-10-08 13:30 2.64 64 387 (2010) 45 (2018) 105 45 47 49 71 86 140 337
2019-10-08 12:30 2.63 63 387 (2010) 45 (2018) 105 45 47 49 71 86 140 337
2019-10-08 11:30 2.63 63 387 (2010) 45 (2018) 105 45 47 49 71 86 140 337
2019-10-08 10:30 2.64 64 387 (2010) 45 (2018) 105 45 47 49 71 86 140 337
2019-10-08 09:30 2.63 63 387 (2010) 45 (2018) 105 45 47 49 71 86 140 337
2019-10-08 08:30 2.63 63 387 (2010) 45 (2018) 105 45 47 49 71 86 140 337
2019-10-08 07:30 2.63 63 387 (2010) 45 (2018) 105 45 47 49 71 86 140 337
2019-10-08 06:30 2.63 63 387 (2010) 45 (2018) 105 45 47 49 71 86 140 337
2019-10-08 05:30 2.63 63 387 (2010) 45 (2018) 105 45 47 49 71 86 140 337
2019-10-08 04:30 2.63 63 387 (2010) 45 (2018) 105 45 47 49 71 86 140 337
2019-10-08 03:30 2.62 61 387 (2010) 45 (2018) 105 45 47 49 71 86 140 337
2019-10-08 02:30 2.63 63 387 (2010) 45 (2018) 105 45 47 49 71 86 140 337
2019-10-08 01:30 2.63 63 387 (2010) 45 (2018) 105 45 47 49 71 86 140 337
2019-10-08 00:30 2.63 63 387 (2010) 45 (2018) 105 45 47 49 71 86 140 337
2019-10-07 23:30 2.63 63 355 (2019) 44 (2008) 92 44 47 50 72 86 88 275
2019-10-07 22:30 2.63 63 355 (2019) 44 (2008) 92 44 47 50 72 86 88 275
2019-10-07 21:30 2.63 63 355 (2019) 44 (2008) 92 44 47 50 72 86 88 275
2019-10-07 20:30 2.63 63 355 (2019) 44 (2008) 92 44 47 50 72 86 88 275
2019-10-07 19:30 2.63 63 355 (2019) 44 (2008) 92 44 47 50 72 86 88 275
2019-10-07 18:30 2.62 61 355 (2019) 44 (2008) 92 44 47 50 72 86 88 275
2019-10-07 17:30 2.63 63 355 (2019) 44 (2008) 92 44 47 50 72 86 88 275
2019-10-07 16:30 2.63 63 355 (2019) 44 (2008) 92 44 47 50 72 86 88 275
2019-10-07 15:30 2.63 63 355 (2019) 44 (2008) 92 44 47 50 72 86 88 275
2019-10-07 14:30 2.63 63 355 (2019) 44 (2008) 92 44 47 50 72 86 88 275
2019-10-07 13:30 2.62 61 355 (2019) 44 (2008) 92 44 47 50 72 86 88 275
2019-10-07 12:30 2.63 63 355 (2019) 44 (2008) 92 44 47 50 72 86 88 275
2019-10-07 11:30 2.63 63 355 (2019) 44 (2008) 92 44 47 50 72 86 88 275
2019-10-07 10:30 2.63 63 355 (2019) 44 (2008) 92 44 47 50 72 86 88 275
2019-10-07 09:30 2.63 63 355 (2019) 44 (2008) 92 44 47 50 72 86 88 275
2019-10-07 08:30 2.62 61 355 (2019) 44 (2008) 92 44 47 50 72 86 88 275
2019-10-07 07:30 2.62 61 355 (2019) 44 (2008) 92 44 47 50 72 86 88 275
2019-10-07 06:30 2.62 61 355 (2019) 44 (2008) 92 44 47 50 72 86 88 275
2019-10-07 05:30 2.62 61 355 (2019) 44 (2008) 92 44 47 50 72 86 88 275
2019-10-07 04:30 2.62 61 355 (2019) 44 (2008) 92 44 47 50 72 86 88 275
2019-10-07 03:30 2.62 61 355 (2019) 44 (2008) 92 44 47 50 72 86 88 275
2019-10-07 02:30 2.62 61 355 (2019) 44 (2008) 92 44 47 50 72 86 88 275
2019-10-07 01:30 2.62 61 355 (2019) 44 (2008) 92 44 47 50 72 86 88 275
2019-10-07 00:30 2.61 60 355 (2019) 44 (2008) 92 44 47 50 72 86 88 275

A total of 170 rows are displayed for years 2008 through 2019.

Trips for Huzzah Creek (Missouri), Steelville (07014000)

DateStartEndDistanceConditionDischargeHeightFishingDetails
Click for details2012-08-25 Scotia Meramec River Total trip distance: 3.8 miles1.3 Low 41 2.08 None NoneNone Alderson, Daniel
Caldwell, Justin
Edmond, Brian
Filson, Nathan
Ince, Seth
Luebrecht, Michael
Luebrecht, Ryan
Scherder, Travis
Smith, Andy
Alderson, Daniel; Caldwell, Justin; Edmond, Brian; Filson, Nathan; Ince, Seth; Luebrecht, Michael; Luebrecht, Ryan; Scherder, Travis; Smith, Andy
The Bull Float Trip. The river was packed with people, with boats literally touching for much of the trip.The Bull Float Trip.  The river was packed with people, with boats literally touching for much of the trip. USGS Gauge Data:
Steelville (07014000)
Discharge: 41
Height: 2.08
<b>USGS Gauge Data:</b></br />Steelville (07014000)<br />Discharge: 41<br />Height: 2.08
Source: EdmondSource: Edmond

A total of 1 rows are displayed.

Trip Summary for Huzzah Creek (Missouri), Steelville (07014000)

Miles1.3
Trips1
People9
Dates1
Years1
Months1
Rows1
Sources1

Condition Descriptions

Fishing Conditions

Fish Species

Notes

Classic Trip List

The classic River Trips application is still available for use. It is updated with the new system using a data retrofit. It is no longer maintained. The original River Trips application is no longer updated (as of 1 Dec 2016) but can be checked for errors or for the condition of the data before it was converted to the new system.